Time;durP1;ratioP1;P1;durP2;ratioP2;P2;SDS_P1;SDS_P2;PMS_P1;PMS_P2;Temp;Humidity;BMP_temperature;BMP_pressure;BME280_temperature;BME280_humidity;BME280_pressure;Samples;Min_cycle;Max_cycle;Signal;HPM_P1;HPM_P2
2022/12/27 05:04:17;;;;;;;0.90;0.90;;;4.40;99.90;;;;;;4892960;29;20249;-66
2022/12/27 05:06:44;;;;;;;0.50;0.50;;;4.40;99.90;;;;;;4892606;29;20216;-67
2022/12/27 05:14:41;;;;;;;1.10;1.10;;;4.40;99.90;;;;;;4861371;29;20259;-66
2022/12/27 05:17:09;;;;;;;1.75;1.73;;;4.40;99.90;;;;;;4876780;29;20245;-66
2022/12/27 05:19:36;;;;;;;1.35;1.25;;;4.50;99.90;;;;;;4889164;29;20212;-67
2022/12/27 05:27:27;;;;;;;2.42;2.22;;;4.60;99.90;;;;;;4869610;29;20243;-65
2022/12/27 05:29:54;;;;;;;0.90;0.90;;;4.60;99.90;;;;;;4877843;29;20213;-66
2022/12/27 05:32:22;;;;;;;3.53;2.85;;;4.60;99.90;;;;;;4891708;29;20227;-66
2022/12/27 05:34:49;;;;;;;1.00;1.00;;;4.60;99.90;;;;;;4875246;29;20658;-66
2022/12/27 05:37:15;;;;;;;1.80;1.70;;;4.50;99.90;;;;;;4881174;29;20218;-66
2022/12/27 05:39:42;;;;;;;3.80;2.78;;;4.60;99.90;;;;;;4883252;29;20308;-66
2022/12/27 05:42:09;;;;;;;1.23;1.23;;;4.60;99.90;;;;;;4890575;29;20745;-66
2022/12/27 05:44:35;;;;;;;3.70;1.98;;;4.50;99.90;;;;;;4877353;29;20741;-66
2022/12/27 05:47:02;;;;;;;1.55;1.05;;;4.50;99.90;;;;;;4887413;29;20200;-66
2022/12/27 05:49:30;;;;;;;8.75;3.60;;;4.50;99.90;;;;;;4876988;29;20238;-66
2022/12/27 05:51:57;;;;;;;1.60;1.50;;;4.50;99.90;;;;;;4891799;29;20219;-65
2022/12/27 05:54:23;;;;;;;5.45;1.95;;;4.50;99.90;;;;;;4878385;29;20576;-66
2022/12/27 05:56:50;;;;;;;2.88;2.78;;;4.50;99.90;;;;;;4884921;29;20744;-66
2022/12/27 05:59:17;;;;;;;41.00;3.05;;;4.50;99.90;;;;;;4882967;29;20212;-65
2022/12/27 06:01:43;;;;;;;7.32;1.70;;;4.50;99.90;;;;;;4889276;29;20243;-66
2022/12/27 06:04:10;;;;;;;1.90;1.90;;;4.50;99.90;;;;;;4879966;29;20216;-66
2022/12/27 06:06:38;;;;;;;1.83;1.77;;;4.50;99.90;;;;;;4875391;29;20236;-66
2022/12/27 06:09:05;;;;;;;0.90;0.90;;;4.50;99.90;;;;;;4876552;29;20209;-67
2022/12/27 06:11:31;;;;;;;2.90;2.60;;;4.50;99.90;;;;;;4877357;29;20228;-66
2022/12/27 06:13:58;;;;;;;1.60;1.50;;;4.50;99.90;;;;;;4877541;29;20209;-67
2022/12/27 06:16:25;;;;;;;2.17;1.92;;;4.50;99.90;;;;;;4888177;29;20204;-67
2022/12/27 06:18:51;;;;;;;5.10;1.63;;;4.60;99.90;;;;;;4879784;29;20216;-66
2022/12/27 06:21:20;;;;;;;2.13;2.03;;;4.60;99.90;;;;;;4879363;29;20244;-67
2022/12/27 06:23:49;;;;;;;3.63;2.13;;;4.70;99.90;;;;;;4883786;29;20272;-66
2022/12/27 06:26:19;;;;;;;4.78;1.63;;;4.70;99.90;;;;;;4884951;29;20233;-66
2022/12/27 06:28:46;;;;;;;7.00;2.50;;;4.70;99.90;;;;;;4880617;29;20208;-66
2022/12/27 06:31:13;;;;;;;1.83;1.73;;;4.70;99.90;;;;;;4886413;29;20239;-66
2022/12/27 06:33:40;;;;;;;3.25;2.70;;;4.70;99.90;;;;;;4885456;29;20220;-66
2022/12/27 06:36:07;;;;;;;3.80;1.70;;;4.60;99.90;;;;;;4892940;29;20207;-66
2022/12/27 06:38:34;;;;;;;1.75;1.75;;;4.60;99.90;;;;;;4878357;29;20216;-66
2022/12/27 06:41:03;;;;;;;1.23;1.23;;;4.60;99.90;;;;;;4886737;29;20223;-66
2022/12/27 06:43:30;;;;;;;1.92;1.83;;;4.60;99.90;;;;;;4892169;29;20212;-66
2022/12/27 06:45:57;;;;;;;1.98;1.88;;;4.60;99.90;;;;;;4892384;29;20275;-66
2022/12/27 06:48:23;;;;;;;2.28;2.17;;;4.60;99.90;;;;;;4886845;29;20223;-66
2022/12/27 06:50:50;;;;;;;14.80;1.40;;;4.60;99.90;;;;;;4887779;29;20597;-66
2022/12/27 06:53:17;;;;;;;1.45;1.38;;;4.60;99.90;;;;;;4878588;29;20217;-65
2022/12/27 06:55:44;;;;;;;1.98;1.98;;;4.60;99.90;;;;;;4885633;29;20744;-65
2022/12/27 06:58:12;;;;;;;1.52;1.23;;;4.60;99.90;;;;;;4882653;29;20598;-66
2022/12/27 07:00:39;;;;;;;2.17;2.08;;;4.60;99.90;;;;;;4884172;29;20327;-65
2022/12/27 07:03:06;;;;;;;0.65;0.52;;;4.60;99.90;;;;;;4880142;29;20220;-65
2022/12/27 07:05:35;;;;;;;1.38;1.38;;;4.60;99.90;;;;;;4883823;29;20251;-65
2022/12/27 07:08:02;;;;;;;1.40;1.40;;;4.60;99.90;;;;;;4889540;29;20221;-65
2022/12/27 07:10:28;;;;;;;2.55;1.35;;;4.60;99.90;;;;;;4883421;29;20628;-67
2022/12/27 07:12:56;;;;;;;1.58;1.58;;;4.50;99.90;;;;;;4881293;29;20670;-66
2022/12/27 07:15:25;;;;;;;1.70;1.60;;;4.50;99.90;;;;;;4884556;29;20284;-67
2022/12/27 07:17:51;;;;;;;1.48;1.48;;;4.50;99.90;;;;;;4882930;29;20205;-67
2022/12/27 07:20:18;;;;;;;1.55;1.55;;;4.60;99.90;;;;;;4895336;29;20227;-67
2022/12/27 07:22:45;;;;;;;0.77;0.77;;;4.60;99.90;;;;;;4890864;29;20208;-66
2022/12/27 07:25:11;;;;;;;1.17;1.10;;;4.60;99.90;;;;;;4885907;29;20227;-66
2022/12/27 07:27:38;;;;;;;1.23;1.23;;;4.70;99.90;;;;;;4895315;29;20211;-66
2022/12/27 07:30:06;;;;;;;2.80;2.13;;;4.70;99.90;;;;;;4888103;29;20213;-66
2022/12/27 07:32:34;;;;;;;2.95;1.40;;;4.80;99.90;;;;;;4882859;29;20722;-65
2022/12/27 07:35:01;;;;;;;6.53;1.30;;;4.80;99.90;;;;;;4880463;29;20599;-64
2022/12/27 07:37:27;;;;;;;1.98;1.85;;;4.80;99.90;;;;;;4886692;29;20308;-66
2022/12/27 07:39:54;;;;;;;1.70;1.63;;;4.90;99.90;;;;;;4879116;29;20225;-65
2022/12/27 07:42:21;;;;;;;1.67;1.67;;;5.00;99.90;;;;;;4884548;29;20244;-65
2022/12/27 07:44:47;;;;;;;1.10;1.10;;;4.90;99.90;;;;;;4875417;29;20212;-67
2022/12/27 07:47:14;;;;;;;1.65;1.27;;;4.90;99.90;;;;;;4888560;29;20212;-64
2022/12/27 07:49:42;;;;;;;1.95;1.58;;;4.90;99.90;;;;;;4894765;29;20207;-66
2022/12/27 07:52:09;;;;;;;1.50;1.42;;;4.90;99.90;;;;;;4892450;29;20481;-66
2022/12/27 07:54:35;;;;;;;2.78;2.78;;;4.90;99.90;;;;;;4898387;29;20213;-65
2022/12/27 07:57:02;;;;;;;3.25;1.52;;;4.90;99.90;;;;;;4894110;29;20232;-65
2022/12/27 07:59:29;;;;;;;2.90;2.80;;;4.90;99.90;;;;;;4877180;29;20285;-66
2022/12/27 08:02:04;;;;;;;2.17;1.98;;;4.90;99.90;;;;;;4869811;29;20303;-65
2022/12/27 08:04:32;;;;;;;2.13;1.20;;;4.90;99.90;;;;;;4882991;29;20208;-66
2022/12/27 08:07:04;;;;;;;14.60;1.77;;;4.90;99.90;;;;;;4883819;29;20325;-67
2022/12/27 08:09:33;;;;;;;2.00;1.92;;;4.90;99.90;;;;;;4882738;29;20646;-67
2022/12/27 08:12:00;;;;;;;2.70;2.50;;;4.90;99.90;;;;;;4876809;29;20421;-65
2022/12/27 08:14:27;;;;;;;1.00;1.00;;;4.90;99.90;;;;;;4883693;29;20207;-67
2022/12/27 08:16:55;;;;;;;2.90;1.85;;;4.80;99.90;;;;;;4886121;29;20293;-66
2022/12/27 08:19:21;;;;;;;2.25;2.10;;;4.80;99.90;;;;;;4878020;29;20279;-67
2022/12/27 08:21:48;;;;;;;1.85;1.20;;;4.80;99.90;;;;;;4876871;29;20231;-67
2022/12/27 08:24:16;;;;;;;1.48;1.48;;;4.80;99.90;;;;;;4880726;29;20296;-66
2022/12/27 08:26:43;;;;;;;2.88;2.35;;;4.80;99.90;;;;;;4890821;29;20236;-66
2022/12/27 08:29:09;;;;;;;5.05;1.75;;;4.90;99.90;;;;;;4882868;29;20217;-66
2022/12/27 08:31:36;;;;;;;2.20;1.83;;;4.90;99.90;;;;;;4878740;29;20229;-67
2022/12/27 08:34:03;;;;;;;0.95;0.95;;;5.00;99.90;;;;;;4894360;29;20211;-66
2022/12/27 08:39:53;;;;;;;0.75;0.75;;;5.00;99.90;;;;;;4881360;29;20218;-67
2022/12/27 08:42:19;;;;;;;2.35;2.25;;;5.10;99.90;;;;;;4892438;29;20284;-67
2022/12/27 08:44:46;;;;;;;1.90;1.35;;;5.10;99.90;;;;;;4882942;29;20214;-66
2022/12/27 08:47:13;;;;;;;1.40;1.30;;;5.10;99.90;;;;;;4887188;29;20239;-66
2022/12/27 08:49:39;;;;;;;1.42;1.42;;;5.10;99.90;;;;;;4884707;29;20215;-66
2022/12/27 08:52:06;;;;;;;1.58;1.48;;;5.20;99.90;;;;;;4884973;29;20700;-67
2022/12/27 08:54:33;;;;;;;0.80;0.80;;;5.20;99.90;;;;;;4884816;29;20211;-66
2022/12/27 08:57:01;;;;;;;0.68;0.68;;;5.20;99.90;;;;;;4888710;29;20211;-66
2022/12/27 08:59:28;;;;;;;1.10;1.10;;;5.20;99.90;;;;;;4895116;29;20295;-66
2022/12/27 09:01:55;;;;;;;1.92;1.83;;;5.10;99.90;;;;;;4883659;29;20241;-67
2022/12/27 09:04:21;;;;;;;1.10;1.10;;;5.10;99.90;;;;;;4878625;29;20213;-67
2022/12/27 09:06:48;;;;;;;1.48;1.27;;;5.10;99.90;;;;;;4874887;29;20606;-66
2022/12/27 09:09:15;;;;;;;0.70;0.70;;;5.10;99.90;;;;;;4884773;29;20219;-64
2022/12/27 09:11:42;;;;;;;0.75;0.75;;;5.10;99.90;;;;;;4878677;29;20643;-66
2022/12/27 09:14:10;;;;;;;1.38;1.25;;;5.10;99.90;;;;;;4882392;29;20242;-67
2022/12/27 09:16:38;;;;;;;0.85;0.85;;;5.10;99.90;;;;;;4880861;29;20215;-66
2022/12/27 09:19:05;;;;;;;0.80;0.80;;;5.10;99.90;;;;;;4878643;29;20209;-66
2022/12/27 09:21:35;;;;;;;1.17;1.15;;;5.10;99.90;;;;;;4876803;29;20232;-66
2022/12/27 09:24:02;;;;;;;2.50;1.05;;;5.20;99.90;;;;;;4873876;29;20578;-67
2022/12/27 09:26:30;;;;;;;1.52;1.40;;;5.20;99.90;;;;;;4880649;29;20706;-66
2022/12/27 09:28:58;;;;;;;10.45;2.75;;;5.20;99.90;;;;;;4879701;29;20218;-66
2022/12/27 09:31:27;;;;;;;1.00;1.00;;;5.20;99.90;;;;;;4879569;29;20601;-65
2022/12/27 09:33:54;;;;;;;4.60;2.00;;;5.30;99.90;;;;;;4884341;29;20223;-65
2022/12/27 09:36:23;;;;;;;0.77;0.77;;;5.40;99.90;;;;;;4878992;29;20751;-65
2022/12/27 09:38:53;;;;;;;1.20;0.98;;;5.40;99.90;;;;;;4875807;29;20216;-65
2022/12/27 09:41:35;;;;;;;2.83;1.02;;;5.40;99.90;;;;;;4881566;29;20289;-65
2022/12/27 09:44:07;;;;;;;0.75;0.75;;;5.30;99.90;;;;;;4884170;29;20236;-66
2022/12/27 09:46:41;;;;;;;0.90;0.90;;;5.30;99.90;;;;;;4881093;29;20224;-66
2022/12/27 09:49:11;;;;;;;0.73;0.73;;;5.40;99.90;;;;;;4876508;29;20590;-66
2022/12/27 09:51:46;;;;;;;1.65;1.23;;;5.40;99.90;;;;;;4878358;29;20241;-66
2022/12/27 09:54:14;;;;;;;6.63;1.00;;;5.40;99.90;;;;;;4882644;29;20241;-67
2022/12/27 09:56:41;;;;;;;5.88;1.98;;;5.40;99.90;;;;;;4878848;29;20204;-65
2022/12/27 09:59:20;;;;;;;4.47;1.35;;;5.40;99.90;;;;;;4876455;29;20220;-66
2022/12/27 10:01:48;;;;;;;10.30;1.45;;;5.40;99.90;;;;;;4883663;29;20232;-65
2022/12/27 10:04:17;;;;;;;1.08;1.08;;;5.40;99.90;;;;;;4884612;29;20215;-65
2022/12/27 10:07:04;;;;;;;1.88;1.20;;;5.40;99.90;;;;;;4882255;29;20654;-66
2022/12/27 10:09:51;;;;;;;2.35;2.22;;;5.40;99.90;;;;;;4876980;29;20220;-66
2022/12/27 10:12:41;;;;;;;1.38;1.38;;;5.40;99.90;;;;;;4882415;29;20251;-66
2022/12/27 10:15:21;;;;;;;6.82;1.08;;;5.40;99.90;;;;;;4873803;29;20221;-66
2022/12/27 10:17:59;;;;;;;0.95;0.80;;;5.50;99.90;;;;;;4872903;29;20224;-66
2022/12/27 10:20:35;;;;;;;4.32;1.30;;;5.50;99.90;;;;;;4875436;29;20208;-66
2022/12/27 10:23:05;;;;;;;2.97;2.17;;;5.60;99.90;;;;;;4881442;29;20526;-65
2022/12/27 10:25:34;;;;;;;1.48;1.38;;;5.60;99.90;;;;;;4880368;29;20478;-65
2022/12/27 10:28:13;;;;;;;2.15;1.85;;;5.60;99.90;;;;;;4888565;29;20239;-66
2022/12/27 10:30:41;;;;;;;0.95;0.80;;;5.60;99.90;;;;;;4877495;29;20582;-66
2022/12/27 10:33:14;;;;;;;6.88;1.58;;;5.60;99.90;;;;;;4878993;29;20650;-66
2022/12/27 10:35:41;;;;;;;1.17;1.17;;;5.60;99.90;;;;;;4878411;29;20225;-65
2022/12/27 10:38:11;;;;;;;2.20;2.10;;;5.60;99.90;;;;;;4875889;29;20213;-66
2022/12/27 10:40:42;;;;;;;2.50;0.95;;;5.60;99.90;;;;;;4875974;29;20237;-66
2022/12/27 10:43:17;;;;;;;1.17;1.17;;;5.70;99.90;;;;;;4862778;29;20209;-66
2022/12/27 10:45:44;;;;;;;2.17;1.13;;;5.70;99.90;;;;;;4872193;29;20205;-65
2022/12/27 10:48:16;;;;;;;9.90;2.80;;;5.60;99.90;;;;;;4873927;29;20212;-65
2022/12/27 10:50:47;;;;;;;2.45;2.25;;;5.70;99.90;;;;;;4873469;29;20233;-65
2022/12/27 10:53:31;;;;;;;1.67;1.67;;;5.70;99.90;;;;;;4883839;29;20744;-66
2022/12/27 10:56:10;;;;;;;1.35;1.30;;;5.70;99.90;;;;;;4871461;29;20312;-66
2022/12/27 10:58:40;;;;;;;1.00;1.00;;;5.70;99.90;;;;;;4872881;29;20230;-66
2022/12/27 11:01:16;;;;;;;2.55;1.15;;;5.70;99.90;;;;;;4888352;29;20235;-66
2022/12/27 11:03:44;;;;;;;2.30;1.98;;;5.80;99.90;;;;;;4880662;29;21163;-66
2022/12/27 11:06:19;;;;;;;1.50;1.50;;;5.80;99.90;;;;;;4873050;29;20233;-66
2022/12/27 11:08:46;;;;;;;2.80;1.67;;;5.70;99.90;;;;;;4878865;29;20621;-65
2022/12/27 11:11:16;;;;;;;3.80;2.80;;;5.70;99.90;;;;;;4882445;29;20233;-66
2022/12/27 11:13:43;;;;;;;0.82;0.82;;;5.80;99.90;;;;;;4879503;29;20205;-66
2022/12/27 11:16:17;;;;;;;4.57;2.15;;;5.80;99.90;;;;;;4882773;29;20217;-66
2022/12/27 11:18:48;;;;;;;0.82;0.82;;;5.80;99.90;;;;;;4880854;29;20831;-66
2022/12/27 11:21:16;;;;;;;1.00;0.90;;;5.80;99.90;;;;;;4881499;29;20253;-66
2022/12/27 11:23:45;;;;;;;5.50;1.55;;;5.80;99.90;;;;;;4883026;29;20239;-66
2022/12/27 11:26:23;;;;;;;1.35;1.13;;;5.90;99.90;;;;;;4882711;29;20209;-66
2022/12/27 11:28:53;;;;;;;1.48;1.42;;;5.90;99.90;;;;;;4876168;29;20214;-66
2022/12/27 11:31:30;;;;;;;1.83;1.73;;;6.00;99.90;;;;;;4883513;29;20252;-66
2022/12/27 11:34:00;;;;;;;1.05;1.05;;;6.00;99.90;;;;;;4874179;29;20204;-66
2022/12/27 11:36:29;;;;;;;1.17;1.17;;;6.10;99.90;;;;;;4872969;29;20228;-66
2022/12/27 11:38:57;;;;;;;1.10;0.90;;;6.10;99.90;;;;;;4879926;29;20212;-66
2022/12/27 11:41:32;;;;;;;0.80;0.80;;;6.10;99.90;;;;;;4883719;29;20234;-66
2022/12/27 11:44:05;;;;;;;2.67;1.75;;;6.10;99.90;;;;;;4881117;29;20222;-66
2022/12/27 11:46:39;;;;;;;1.80;1.77;;;6.00;99.90;;;;;;4892778;29;20244;-66
2022/12/27 11:49:17;;;;;;;0.60;0.60;;;6.00;99.90;;;;;;4881472;29;20220;-66
2022/12/27 11:52:16;;;;;;;4.50;1.38;;;6.00;99.90;;;;;;4884951;29;20243;-66
2022/12/27 11:55:15;;;;;;;1.23;0.68;;;6.00;99.90;;;;;;4857804;29;20213;-66
2022/12/27 11:58:14;;;;;;;0.90;0.90;;;6.10;99.90;;;;;;4872386;29;20210;-65
2022/12/27 12:00:49;;;;;;;1.27;1.27;;;6.00;99.90;;;;;;4879862;29;20246;-66
2022/12/27 12:03:51;;;;;;;1.15;1.13;;;6.10;99.90;;;;;;4876521;29;20229;-65
2022/12/27 12:06:23;;;;;;;2.15;1.00;;;6.10;99.90;;;;;;4878804;29;20275;-66
2022/12/27 12:09:18;;;;;;;1.52;1.52;;;6.10;99.90;;;;;;4892871;29;20204;-65
2022/12/27 12:12:09;;;;;;;5.68;1.13;;;6.10;99.90;;;;;;4878381;29;20555;-65
2022/12/27 12:15:12;;;;;;;4.78;1.33;;;6.20;99.90;;;;;;4880565;29;20573;-66
2022/12/27 12:18:00;;;;;;;0.47;0.47;;;6.20;99.90;;;;;;4870822;29;20213;-65
2022/12/27 12:21:00;;;;;;;0.80;0.80;;;6.20;99.90;;;;;;4884292;29;20231;-66
2022/12/27 12:23:46;;;;;;;1.38;1.02;;;6.20;99.90;;;;;;4864028;29;20209;-66
2022/12/27 12:26:17;;;;;;;1.33;1.25;;;6.20;99.90;;;;;;4886339;29;20299;-65
2022/12/27 12:29:24;;;;;;;2.75;2.60;;;6.20;99.90;;;;;;4874734;29;20224;-65
2022/12/27 12:32:18;;;;;;;1.85;1.00;;;6.20;99.90;;;;;;4885576;29;20277;-65
2022/12/27 12:35:14;;;;;;;0.60;0.60;;;6.30;99.90;;;;;;4867274;29;20591;-65
2022/12/27 12:37:55;;;;;;;3.60;1.38;;;6.30;99.90;;;;;;4869873;29;20206;-65
2022/12/27 12:40:36;;;;;;;6.28;1.92;;;6.20;99.90;;;;;;4885315;29;20250;-65
2022/12/27 12:43:17;;;;;;;1.17;1.17;;;6.20;99.90;;;;;;4885839;29;20218;-65
2022/12/27 12:46:00;;;;;;;12.55;2.90;;;6.10;99.90;;;;;;4883280;29;20564;-65
2022/12/27 12:48:49;;;;;;;1.73;0.75;;;6.10;99.90;;;;;;4888269;29;20237;-64
2022/12/27 12:51:34;;;;;;;1.10;1.10;;;6.10;99.90;;;;;;4893484;29;20256;-65
2022/12/27 12:54:12;;;;;;;1.30;1.30;;;6.10;99.90;;;;;;4882415;29;20217;-65
2022/12/27 12:57:01;;;;;;;0.90;0.90;;;6.20;99.90;;;;;;4872638;29;20261;-65
2022/12/27 12:59:50;;;;;;;1.40;1.40;;;6.20;99.90;;;;;;4887023;29;20206;-65
2022/12/27 13:02:48;;;;;;;0.73;0.73;;;6.20;99.90;;;;;;4880056;29;20241;-66
2022/12/27 13:05:22;;;;;;;0.73;0.73;;;6.30;99.90;;;;;;4879062;29;20220;-65
2022/12/27 13:08:04;;;;;;;2.67;0.95;;;6.20;99.90;;;;;;4886097;29;20229;-65
2022/12/27 13:10:57;;;;;;;12.50;2.10;;;6.20;99.90;;;;;;4882431;29;20206;-64
2022/12/27 13:13:36;;;;;;;3.55;1.40;;;6.20;99.90;;;;;;4883655;29;20219;-65
2022/12/27 13:16:15;;;;;;;2.35;1.50;;;6.10;99.90;;;;;;4879810;29;20216;-64
2022/12/27 13:18:49;;;;;;;0.90;0.90;;;6.10;99.90;;;;;;4886150;29;20553;-65
2022/12/27 13:21:30;;;;;;;1.80;1.80;;;6.10;99.90;;;;;;4888767;29;20235;-66
2022/12/27 13:24:12;;;;;;;0.75;0.75;;;6.10;99.90;;;;;;4873679;29;20222;-64
2022/12/27 13:26:49;;;;;;;1.15;1.15;;;6.00;99.90;;;;;;4873945;29;20745;-65
2022/12/27 13:29:48;;;;;;;4.68;1.92;;;6.00;99.90;;;;;;4885340;29;20204;-64
2022/12/27 13:32:27;;;;;;;1.88;1.77;;;6.00;99.90;;;;;;4869536;29;20244;-65
2022/12/27 13:35:16;;;;;;;4.60;1.05;;;5.90;99.90;;;;;;4888426;29;20216;-65
2022/12/27 13:37:56;;;;;;;1.55;1.55;;;5.90;99.90;;;;;;4884771;29;20204;-65
2022/12/27 13:40:41;;;;;;;2.60;2.50;;;5.90;99.90;;;;;;4884867;29;20212;-65
2022/12/27 13:43:42;;;;;;;1.15;1.15;;;5.80;99.90;;;;;;4877483;29;20555;-67
2022/12/27 13:46:31;;;;;;;1.35;1.35;;;5.80;99.90;;;;;;4886990;29;20213;-65
2022/12/27 13:49:12;;;;;;;3.63;1.40;;;5.80;99.90;;;;;;4882087;29;20577;-65
2022/12/27 13:51:44;;;;;;;4.35;1.30;;;5.70;99.90;;;;;;4875508;29;20232;-65
2022/12/27 13:55:05;;;;;;;3.33;1.88;;;5.70;99.90;;;;;;4877877;29;20220;-65
2022/12/27 13:58:03;;;;;;;0.80;0.80;;;5.70;99.90;;;;;;4873103;29;20268;-65
2022/12/27 14:00:35;;;;;;;1.88;1.17;;;5.70;99.90;;;;;;4872652;29;20966;-65
2022/12/27 14:03:40;;;;;;;1.50;1.38;;;5.70;99.90;;;;;;4884104;29;20214;-65
2022/12/27 14:06:49;;;;;;;1.80;1.02;;;5.60;99.90;;;;;;4876113;29;20228;-65
2022/12/27 14:09:30;;;;;;;2.50;1.25;;;5.60;99.90;;;;;;4878414;29;20206;-65
2022/12/27 14:12:15;;;;;;;1.92;1.92;;;5.60;99.90;;;;;;4890999;29;20251;-65
2022/12/27 14:14:44;;;;;;;2.38;1.70;;;5.60;99.90;;;;;;4879108;29;20217;-65
2022/12/27 14:17:26;;;;;;;4.30;2.30;;;5.50;99.90;;;;;;4876709;29;20303;-65
2022/12/27 14:20:11;;;;;;;1.90;1.80;;;5.50;99.90;;;;;;4889989;29;20209;-65
2022/12/27 14:22:56;;;;;;;2.17;2.08;;;5.40;99.90;;;;;;4876346;29;20251;-65
2022/12/27 14:26:11;;;;;;;9.98;1.58;;;5.40;99.90;;;;;;4875073;29;20214;-65
2022/12/27 14:29:06;;;;;;;0.90;0.90;;;5.40;99.90;;;;;;4888962;29;20562;-65
2022/12/27 14:32:19;;;;;;;1.02;1.02;;;5.30;99.90;;;;;;4876436;29;20699;-66
2022/12/27 14:35:28;;;;;;;3.03;1.55;;;5.30;99.90;;;;;;4890394;29;20227;-63
2022/12/27 14:38:22;;;;;;;2.05;1.95;;;5.30;99.90;;;;;;4886551;29;20200;-64
2022/12/27 14:41:27;;;;;;;2.33;1.52;;;5.20;99.90;;;;;;4887730;29;20236;-66
2022/12/27 14:44:41;;;;;;;0.90;0.90;;;5.20;99.90;;;;;;4875261;29;20222;-66
2022/12/27 14:47:38;;;;;;;1.58;1.58;;;5.20;99.90;;;;;;4875142;29;20216;-65
2022/12/27 14:50:43;;;;;;;0.75;0.75;;;5.10;99.90;;;;;;4884348;29;20203;-66
2022/12/27 14:53:42;;;;;;;1.63;1.52;;;5.10;99.90;;;;;;4866817;29;20219;-65
2022/12/27 14:56:22;;;;;;;1.75;1.75;;;5.10;99.90;;;;;;4876817;29;20563;-66
2022/12/27 14:59:04;;;;;;;1.42;1.42;;;5.00;99.90;;;;;;4884525;29;20229;-65
2022/12/27 15:01:45;;;;;;;0.85;0.85;;;5.00;99.90;;;;;;4872380;29;20246;-65
2022/12/27 15:04:36;;;;;;;2.72;2.53;;;4.90;99.90;;;;;;4884018;29;20203;-66
2022/12/27 15:07:32;;;;;;;2.88;1.95;;;4.90;99.90;;;;;;4878673;29;20586;-66
2022/12/27 15:10:06;;;;;;;2.60;2.42;;;4.80;99.90;;;;;;4881638;29;20553;-65
2022/12/27 15:12:39;;;;;;;2.35;1.35;;;4.70;99.90;;;;;;4884656;29;20227;-65
2022/12/27 15:15:27;;;;;;;3.80;3.70;;;4.70;99.90;;;;;;4880783;29;20251;-66
2022/12/27 15:18:11;;;;;;;3.80;3.28;;;4.70;99.90;;;;;;4887158;29;20204;-65
2022/12/27 15:20:54;;;;;;;2.80;2.67;;;4.70;99.90;;;;;;4866318;29;20235;-65
2022/12/27 15:23:28;;;;;;;1.58;1.52;;;4.70;99.90;;;;;;4879051;29;20212;-65
2022/12/27 15:26:05;;;;;;;2.88;2.65;;;4.70;99.90;;;;;;4876970;29;20228;-65
2022/12/27 15:28:47;;;;;;;2.58;1.63;;;4.70;99.90;;;;;;4876183;29;20231;-65
2022/12/27 15:31:26;;;;;;;2.90;1.40;;;4.70;99.90;;;;;;4881700;29;20604;-67
2022/12/27 15:34:07;;;;;;;2.60;1.63;;;4.70;99.90;;;;;;4882338;29;20211;-65
2022/12/27 15:36:40;;;;;;;1.55;1.45;;;4.70;99.90;;;;;;4886389;29;20651;-65
2022/12/27 15:39:45;;;;;;;11.40;2.42;;;4.70;99.90;;;;;;4884732;29;20209;-66
2022/12/27 15:42:31;;;;;;;1.92;1.75;;;4.70;99.90;;;;;;4885467;29;20231;-66
2022/12/27 15:45:06;;;;;;;1.63;1.58;;;4.70;99.90;;;;;;4887540;29;20318;-65
2022/12/27 15:47:53;;;;;;;2.70;2.60;;;4.70;99.90;;;;;;4874574;29;20231;-65
2022/12/27 15:50:39;;;;;;;1.88;1.77;;;4.70;99.90;;;;;;4884930;29;20216;-65
2022/12/27 15:53:18;;;;;;;4.63;2.20;;;4.70;99.90;;;;;;4878662;29;20213;-65
2022/12/27 15:56:24;;;;;;;2.40;2.22;;;4.80;99.90;;;;;;4875235;29;20215;-65
2022/12/27 15:59:34;;;;;;;14.55;8.52;;;4.90;99.90;;;;;;4890425;29;20211;-65
2022/12/27 16:02:33;;;;;;;9.27;6.00;;;4.90;99.90;;;;;;4876033;29;20302;-66
2022/12/27 16:05:12;;;;;;;4.95;4.65;;;4.80;99.90;;;;;;4870289;29;20309;-65
2022/12/27 16:07:42;;;;;;;4.32;3.35;;;4.80;99.90;;;;;;4872205;29;20236;-66
2022/12/27 16:10:47;;;;;;;1.77;1.65;;;4.80;99.90;;;;;;4882969;29;20219;-66
2022/12/27 16:13:40;;;;;;;1.90;1.75;;;4.80;99.90;;;;;;4876136;29;20209;-66
2022/12/27 16:16:25;;;;;;;7.57;3.50;;;4.80;99.90;;;;;;4878637;29;20221;-65
2022/12/27 16:19:18;;;;;;;3.28;3.08;;;4.80;99.90;;;;;;4875946;29;20585;-66
2022/12/27 16:21:47;;;;;;;3.33;3.13;;;4.80;99.90;;;;;;4883648;29;20223;-66
2022/12/27 16:24:18;;;;;;;1.20;1.20;;;4.80;99.90;;;;;;4885166;29;20685;-66
2022/12/27 16:26:58;;;;;;;4.95;2.60;;;4.80;99.90;;;;;;4882120;29;20260;-66
2022/12/27 16:29:31;;;;;;;3.35;2.20;;;4.80;99.90;;;;;;4882643;29;20257;-66
2022/12/27 16:32:17;;;;;;;6.90;2.70;;;4.70;99.90;;;;;;4880681;29;20232;-66
2022/12/27 16:34:45;;;;;;;3.25;1.55;;;4.70;99.90;;;;;;4874251;29;20579;-66
2022/12/27 16:37:28;;;;;;;4.65;4.35;;;4.70;99.90;;;;;;4874431;29;20212;-65
2022/12/27 16:40:09;;;;;;;4.88;4.28;;;4.70;99.90;;;;;;4877048;29;20219;-66
2022/12/27 16:43:31;;;;;;;2.00;1.83;;;4.70;99.90;;;;;;4879422;29;20240;-67
2022/12/27 16:46:29;;;;;;;8.45;3.22;;;4.70;99.90;;;;;;4880267;29;20594;-65
2022/12/27 16:49:28;;;;;;;4.20;4.00;;;4.60;99.90;;;;;;4859141;29;20555;-66
2022/12/27 16:52:07;;;;;;;2.38;2.28;;;4.60;99.90;;;;;;4859728;29;20242;-66
2022/12/27 16:54:48;;;;;;;3.45;2.15;;;4.60;99.90;;;;;;4875482;29;20212;-66
2022/12/27 16:57:40;;;;;;;2.38;2.28;;;4.60;99.90;;;;;;4878255;29;20227;-65
2022/12/27 17:00:35;;;;;;;3.00;2.90;;;4.50;99.90;;;;;;4878278;29;20239;-67
2022/12/27 17:03:28;;;;;;;2.85;2.55;;;4.40;99.90;;;;;;4878098;29;20228;-64
2022/12/27 17:05:57;;;;;;;13.63;4.68;;;4.40;99.90;;;;;;4878572;29;20208;-63
2022/12/27 17:08:27;;;;;;;3.85;3.33;;;4.40;99.90;;;;;;4876643;29;20285;-65
2022/12/27 17:11:02;;;;;;;6.85;3.60;;;4.40;99.90;;;;;;4875211;29;20242;-65
2022/12/27 17:13:40;;;;;;;0.95;0.95;;;4.40;99.90;;;;;;4877008;29;20244;-66
2022/12/27 17:16:18;;;;;;;3.05;2.42;;;4.40;99.90;;;;;;4872701;29;20252;-66
2022/12/27 17:18:49;;;;;;;4.75;3.20;;;4.30;99.90;;;;;;4876043;29;20207;-67
2022/12/27 17:21:21;;;;;;;2.45;2.45;;;4.30;99.90;;;;;;4875946;29;20224;-66
2022/12/27 17:23:50;;;;;;;2.70;2.60;;;4.30;99.90;;;;;;4873536;29;20224;-66
2022/12/27 17:26:46;;;;;;;1.77;1.77;;;4.30;99.90;;;;;;4874256;29;20218;-65
2022/12/27 17:29:36;;;;;;;3.03;2.90;;;4.30;99.90;;;;;;4874965;29;20229;-64
2022/12/27 17:32:10;;;;;;;0.82;0.82;;;4.20;99.90;;;;;;4872774;29;20232;-66
2022/12/27 17:34:48;;;;;;;11.75;2.95;;;4.20;99.90;;;;;;4881851;29;20203;-66
2022/12/27 17:37:20;;;;;;;1.27;1.27;;;4.10;99.90;;;;;;4872645;29;20219;-66
2022/12/27 17:40:07;;;;;;;2.65;2.45;;;4.10;99.90;;;;;;4875048;29;20205;-65
2022/12/27 17:45:45;;;;;;;2.15;2.03;;;4.10;99.90;;;;;;4866771;29;20223;-64
2022/12/27 17:48:23;;;;;;;7.18;2.42;;;4.10;99.90;;;;;;4869321;29;20234;-65
2022/12/27 17:50:53;;;;;;;4.97;2.42;;;4.10;99.90;;;;;;4865922;29;20237;-65
2022/12/27 17:59:07;;;;;;;3.03;2.83;;;4.20;99.90;;;;;;4868613;29;20658;-66
2022/12/27 18:01:37;;;;;;;2.10;2.00;;;4.20;99.90;;;;;;4868095;29;20236;-68
2022/12/27 18:04:05;;;;;;;4.95;2.97;;;4.30;99.90;;;;;;4872855;29;20243;-66
2022/12/27 18:06:34;;;;;;;2.38;2.17;;;4.40;99.90;;;;;;4871839;29;20275;-66
2022/12/27 18:09:01;;;;;;;6.38;2.97;;;4.40;99.90;;;;;;4879040;29;20232;-66
2022/12/27 18:11:33;;;;;;;3.67;3.40;;;4.40;99.90;;;;;;4880592;29;20244;-66
2022/12/27 18:14:02;;;;;;;3.30;3.10;;;4.40;99.90;;;;;;4892257;29;20217;-66
2022/12/27 18:16:37;;;;;;;4.32;3.00;;;4.50;99.90;;;;;;4879552;29;20226;-66
2022/12/27 18:19:04;;;;;;;6.38;3.80;;;4.40;99.90;;;;;;4883463;29;20685;-67
2022/12/27 18:21:31;;;;;;;6.50;4.70;;;4.50;99.90;;;;;;4881504;29;20229;-66
2022/12/27 18:23:57;;;;;;;2.10;2.10;;;4.50;99.90;;;;;;4883166;29;20597;-66
2022/12/27 18:26:36;;;;;;;2.20;2.00;;;4.50;99.90;;;;;;4873795;29;20210;-65
2022/12/27 18:29:04;;;;;;;4.35;4.07;;;4.60;99.90;;;;;;4874911;29;20241;-65
2022/12/27 18:31:36;;;;;;;5.85;5.10;;;4.60;99.90;;;;;;4877922;29;20225;-66
2022/12/27 18:34:06;;;;;;;7.85;5.35;;;4.70;99.90;;;;;;4887896;29;20213;-67
2022/12/27 18:36:38;;;;;;;7.13;4.25;;;4.70;99.90;;;;;;4877152;29;20208;-65
2022/12/27 18:39:13;;;;;;;5.13;4.60;;;4.70;99.90;;;;;;4874167;29;20554;-64
2022/12/27 18:41:45;;;;;;;6.13;3.45;;;4.70;99.90;;;;;;4873951;29;20227;-66
2022/12/27 18:44:17;;;;;;;5.72;4.43;;;4.70;99.90;;;;;;4877690;29;20570;-65
2022/12/27 18:46:49;;;;;;;7.03;4.53;;;4.70;99.90;;;;;;4873484;29;20224;-65
2022/12/27 18:49:23;;;;;;;4.97;4.50;;;4.70;99.90;;;;;;4871972;29;20238;-65
2022/12/27 18:51:50;;;;;;;9.10;6.03;;;4.70;99.90;;;;;;4871081;29;20242;-64
2022/12/27 18:54:28;;;;;;;5.65;4.72;;;4.70;99.90;;;;;;4868722;29;20647;-65
2022/12/27 18:56:56;;;;;;;4.80;4.05;;;4.80;99.90;;;;;;4872061;29;20220;-65
2022/12/27 18:59:26;;;;;;;5.57;4.95;;;4.70;99.90;;;;;;4874888;29;20223;-65
2022/12/27 19:01:56;;;;;;;5.32;4.05;;;4.80;99.90;;;;;;4875558;29;20331;-65
2022/12/27 19:04:25;;;;;;;6.00;5.40;;;4.80;99.90;;;;;;4871883;29;20237;-65
2022/12/27 19:06:58;;;;;;;6.60;4.88;;;4.70;99.90;;;;;;4870461;29;20627;-65
2022/12/27 19:09:28;;;;;;;4.40;3.67;;;4.80;99.90;;;;;;4873408;29;20276;-65
2022/12/27 19:11:57;;;;;;;3.55;3.15;;;4.80;99.90;;;;;;4872574;29;20236;-65